sensor_id;sensor_type;location;lat;lon;timestamp;temperature;humidity
39453;DHT22;25154;-33.684;151.102;2023-03-01T00:00:53;26.50;99.90
39453;DHT22;25154;-33.684;151.102;2023-03-01T00:05:56;27.00;99.90
39453;DHT22;25154;-33.684;151.102;2023-03-01T00:16:12;27.30;99.00
39453;DHT22;25154;-33.684;151.102;2023-03-01T00:21:17;27.50;99.90
39453;DHT22;25154;-33.684;151.102;2023-03-01T00:26:21;27.70;99.80
39453;DHT22;25154;-33.684;151.102;2023-03-01T00:31:27;27.60;99.70
39453;DHT22;25154;-33.684;151.102;2023-03-01T00:36:36;27.70;97.60
39453;DHT22;25154;-33.684;151.102;2023-03-01T00:41:39;28.00;97.50
39453;DHT22;25154;-33.684;151.102;2023-03-01T00:46:42;28.50;98.40
39453;DHT22;25154;-33.684;151.102;2023-03-01T00:51:44;28.90;93.50
39453;DHT22;25154;-33.684;151.102;2023-03-01T00:56:47;28.80;93.60
39453;DHT22;25154;-33.684;151.102;2023-03-01T01:01:50;28.80;94.60
39453;DHT22;25154;-33.684;151.102;2023-03-01T01:06:53;28.90;95.20
39453;DHT22;25154;-33.684;151.102;2023-03-01T01:11:55;29.20;95.20
39453;DHT22;25154;-33.684;151.102;2023-03-01T01:16:58;29.50;96.10
39453;DHT22;25154;-33.684;151.102;2023-03-01T01:22:01;29.60;95.10
39453;DHT22;25154;-33.684;151.102;2023-03-01T01:27:04;29.80;95.30
39453;DHT22;25154;-33.684;151.102;2023-03-01T01:32:07;30.20;92.50
39453;DHT22;25154;-33.684;151.102;2023-03-01T01:37:10;30.30;93.00
39453;DHT22;25154;-33.684;151.102;2023-03-01T01:42:17;29.60;90.70
39453;DHT22;25154;-33.684;151.102;2023-03-01T01:47:22;29.50;94.00
39453;DHT22;25154;-33.684;151.102;2023-03-01T01:52:34;29.90;93.80
39453;DHT22;25154;-33.684;151.102;2023-03-01T01:57:51;30.00;90.60
39453;DHT22;25154;-33.684;151.102;2023-03-01T02:03:04;29.90;90.40
39453;DHT22;25154;-33.684;151.102;2023-03-01T02:08:09;30.00;90.20
39453;DHT22;25154;-33.684;151.102;2023-03-01T02:13:12;30.00;93.00
39453;DHT22;25154;-33.684;151.102;2023-03-01T02:18:17;29.90;92.30
39453;DHT22;25154;-33.684;151.102;2023-03-01T02:23:20;30.30;99.90
39453;DHT22;25154;-33.684;151.102;2023-03-01T02:33:36;31.20;99.90
39453;DHT22;25154;-33.684;151.102;2023-03-01T02:38:41;31.50;99.90
39453;DHT22;25154;-33.684;151.102;2023-03-01T02:43:43;32.20;99.90
39453;DHT22;25154;-33.684;151.102;2023-03-01T02:48:57;31.50;99.90
39453;DHT22;25154;-33.684;151.102;2023-03-01T02:59:02;32.00;99.70
39453;DHT22;25154;-33.684;151.102;2023-03-01T03:04:10;32.40;99.70
39453;DHT22;25154;-33.684;151.102;2023-03-01T03:09:14;32.50;97.30
39453;DHT22;25154;-33.684;151.102;2023-03-01T03:14:17;32.30;99.30
39453;DHT22;25154;-33.684;151.102;2023-03-01T03:19:23;32.10;97.50
39453;DHT22;25154;-33.684;151.102;2023-03-01T03:24:25;32.20;97.80
39453;DHT22;25154;-33.684;151.102;2023-03-01T03:29:28;32.60;96.50
39453;DHT22;25154;-33.684;151.102;2023-03-01T03:34:31;32.20;96.60
39453;DHT22;25154;-33.684;151.102;2023-03-01T03:39:33;31.20;94.70
39453;DHT22;25154;-33.684;151.102;2023-03-01T03:44:36;30.80;95.60
39453;DHT22;25154;-33.684;151.102;2023-03-01T03:49:38;31.10;97.40
39453;DHT22;25154;-33.684;151.102;2023-03-01T03:54:41;32.20;96.20
39453;DHT22;25154;-33.684;151.102;2023-03-01T03:59:43;32.90;96.10
39453;DHT22;25154;-33.684;151.102;2023-03-01T04:04:46;32.80;93.80
39453;DHT22;25154;-33.684;151.102;2023-03-01T04:09:48;31.80;95.30
39453;DHT22;25154;-33.684;151.102;2023-03-01T04:14:50;31.70;98.40
39453;DHT22;25154;-33.684;151.102;2023-03-01T04:19:52;31.50;99.90
39453;DHT22;25154;-33.684;151.102;2023-03-01T04:24:55;30.80;99.90
39453;DHT22;25154;-33.684;151.102;2023-03-01T04:29:57;31.80;99.90
39453;DHT22;25154;-33.684;151.102;2023-03-01T04:35:02;32.90;98.50
39453;DHT22;25154;-33.684;151.102;2023-03-01T04:40:06;34.00;97.10
39453;DHT22;25154;-33.684;151.102;2023-03-01T04:45:14;32.70;95.60
39453;DHT22;25154;-33.684;151.102;2023-03-01T04:50:17;32.40;94.20
39453;DHT22;25154;-33.684;151.102;2023-03-01T04:55:26;32.70;94.40
39453;DHT22;25154;-33.684;151.102;2023-03-01T05:00:29;33.40;93.80
39453;DHT22;25154;-33.684;151.102;2023-03-01T05:05:35;34.20;92.80
39453;DHT22;25154;-33.684;151.102;2023-03-01T05:10:40;34.10;93.40
39453;DHT22;25154;-33.684;151.102;2023-03-01T05:15:46;34.20;93.20
39453;DHT22;25154;-33.684;151.102;2023-03-01T05:20:54;34.00;94.10
39453;DHT22;25154;-33.684;151.102;2023-03-01T05:26:04;33.20;93.60
39453;DHT22;25154;-33.684;151.102;2023-03-01T05:31:07;33.10;94.30
39453;DHT22;25154;-33.684;151.102;2023-03-01T05:36:12;33.10;94.00
39453;DHT22;25154;-33.684;151.102;2023-03-01T05:41:20;33.50;94.20
39453;DHT22;25154;-33.684;151.102;2023-03-01T05:46:23;33.80;93.60
39453;DHT22;25154;-33.684;151.102;2023-03-01T05:51:25;33.70;93.90
39453;DHT22;25154;-33.684;151.102;2023-03-01T05:56:33;32.30;94.70
39453;DHT22;25154;-33.684;151.102;2023-03-01T06:01:36;31.50;97.20
39453;DHT22;25154;-33.684;151.102;2023-03-01T06:06:39;32.50;96.30
39453;DHT22;25154;-33.684;151.102;2023-03-01T06:11:44;31.00;97.00
39453;DHT22;25154;-33.684;151.102;2023-03-01T06:16:52;31.10;97.90
39453;DHT22;25154;-33.684;151.102;2023-03-01T06:22:00;31.00;98.10
39453;DHT22;25154;-33.684;151.102;2023-03-01T06:27:03;31.90;97.80
39453;DHT22;25154;-33.684;151.102;2023-03-01T06:32:05;32.60;97.80
39453;DHT22;25154;-33.684;151.102;2023-03-01T06:37:08;33.10;96.00
39453;DHT22;25154;-33.684;151.102;2023-03-01T06:42:10;33.30;96.00
39453;DHT22;25154;-33.684;151.102;2023-03-01T06:47:13;33.00;96.50
39453;DHT22;25154;-33.684;151.102;2023-03-01T06:52:15;32.90;96.60
39453;DHT22;25154;-33.684;151.102;2023-03-01T06:57:17;32.10;97.30
39453;DHT22;25154;-33.684;151.102;2023-03-01T07:02:20;30.90;99.40
39453;DHT22;25154;-33.684;151.102;2023-03-01T07:07:22;31.10;99.30
39453;DHT22;25154;-33.684;151.102;2023-03-01T07:12:25;29.40;99.90
39453;DHT22;25154;-33.684;151.102;2023-03-01T07:17:28;28.30;99.90
39453;DHT22;25154;-33.684;151.102;2023-03-01T07:22:30;27.10;99.90
39453;DHT22;25154;-33.684;151.102;2023-03-01T07:27:33;26.40;99.90
39453;DHT22;25154;-33.684;151.102;2023-03-01T07:32:35;25.40;99.90
39453;DHT22;25154;-33.684;151.102;2023-03-01T07:37:38;25.00;99.90
39453;DHT22;25154;-33.684;151.102;2023-03-01T07:42:40;24.90;99.90
39453;DHT22;25154;-33.684;151.102;2023-03-01T07:47:42;24.40;99.90
39453;DHT22;25154;-33.684;151.102;2023-03-01T07:52:48;24.20;99.90
39453;DHT22;25154;-33.684;151.102;2023-03-01T07:57:51;23.80;99.90
39453;DHT22;25154;-33.684;151.102;2023-03-01T08:02:53;23.50;99.90
39453;DHT22;25154;-33.684;151.102;2023-03-01T08:07:56;23.40;99.90
39453;DHT22;25154;-33.684;151.102;2023-03-01T08:12:58;23.20;99.90
39453;DHT22;25154;-33.684;151.102;2023-03-01T08:18:00;23.10;99.90
39453;DHT22;25154;-33.684;151.102;2023-03-01T08:23:03;23.00;99.90
39453;DHT22;25154;-33.684;151.102;2023-03-01T08:28:05;22.90;99.90
39453;DHT22;25154;-33.684;151.102;2023-03-01T08:33:07;22.80;99.90
39453;DHT22;25154;-33.684;151.102;2023-03-01T08:38:10;22.70;99.90
39453;DHT22;25154;-33.684;151.102;2023-03-01T08:43:12;22.60;99.90
39453;DHT22;25154;-33.684;151.102;2023-03-01T08:48:15;22.50;99.90
39453;DHT22;25154;-33.684;151.102;2023-03-01T08:53:17;22.40;99.90
39453;DHT22;25154;-33.684;151.102;2023-03-01T08:58:19;22.40;99.90
39453;DHT22;25154;-33.684;151.102;2023-03-01T09:03:22;22.30;99.90
39453;DHT22;25154;-33.684;151.102;2023-03-01T09:08:25;22.30;99.90
39453;DHT22;25154;-33.684;151.102;2023-03-01T09:13:29;22.30;99.90
39453;DHT22;25154;-33.684;151.102;2023-03-01T09:18:33;22.10;99.90
39453;DHT22;25154;-33.684;151.102;2023-03-01T09:23:37;22.10;99.90
39453;DHT22;25154;-33.684;151.102;2023-03-01T09:28:40;22.10;99.90
39453;DHT22;25154;-33.684;151.102;2023-03-01T09:33:50;22.00;99.90
39453;DHT22;25154;-33.684;151.102;2023-03-01T09:38:53;22.00;99.90
39453;DHT22;25154;-33.684;151.102;2023-03-01T09:49:40;21.90;99.90
39453;DHT22;25154;-33.684;151.102;2023-03-01T09:54:44;21.90;99.90
39453;DHT22;25154;-33.684;151.102;2023-03-01T10:10:58;21.60;99.90
39453;DHT22;25154;-33.684;151.102;2023-03-01T10:16:21;21.50;99.90
39453;DHT22;25154;-33.684;151.102;2023-03-01T10:21:25;21.50;99.90
39453;DHT22;25154;-33.684;151.102;2023-03-01T10:31:51;21.40;99.90
39453;DHT22;25154;-33.684;151.102;2023-03-01T10:42:37;21.40;99.90
39453;DHT22;25154;-33.684;151.102;2023-03-01T10:47:40;21.40;99.90
39453;DHT22;25154;-33.684;151.102;2023-03-01T10:52:59;21.30;99.90
39453;DHT22;25154;-33.684;151.102;2023-03-01T10:58:19;21.40;99.90
39453;DHT22;25154;-33.684;151.102;2023-03-01T11:03:29;21.50;99.90
39453;DHT22;25154;-33.684;151.102;2023-03-01T11:24:15;21.10;99.90
39453;DHT22;25154;-33.684;151.102;2023-03-01T11:29:37;21.00;99.90
39453;DHT22;25154;-33.684;151.102;2023-03-01T11:34:49;20.80;99.90
39453;DHT22;25154;-33.684;151.102;2023-03-01T11:45:25;20.60;99.90
39453;DHT22;25154;-33.684;151.102;2023-03-01T11:50:48;20.60;99.90
39453;DHT22;25154;-33.684;151.102;2023-03-01T11:56:16;20.60;99.90
39453;DHT22;25154;-33.684;151.102;2023-03-01T12:07:01;20.70;99.90
39453;DHT22;25154;-33.684;151.102;2023-03-01T12:18:02;20.80;99.90
39453;DHT22;25154;-33.684;151.102;2023-03-01T12:34:30;20.80;99.90
39453;DHT22;25154;-33.684;151.102;2023-03-01T12:45:02;20.80;99.90
39453;DHT22;25154;-33.684;151.102;2023-03-01T12:50:46;20.80;99.90
39453;DHT22;25154;-33.684;151.102;2023-03-01T12:55:50;20.80;99.90
39453;DHT22;25154;-33.684;151.102;2023-03-01T13:06:29;20.60;99.90
39453;DHT22;25154;-33.684;151.102;2023-03-01T13:11:33;20.60;99.90
39453;DHT22;25154;-33.684;151.102;2023-03-01T13:16:41;20.60;99.90
39453;DHT22;25154;-33.684;151.102;2023-03-01T13:21:48;20.70;99.90
39453;DHT22;25154;-33.684;151.102;2023-03-01T13:32:37;21.70;99.90
39453;DHT22;25154;-33.684;151.102;2023-03-01T13:37:43;20.70;99.90
39453;DHT22;25154;-33.684;151.102;2023-03-01T13:42:48;20.70;99.90
39453;DHT22;25154;-33.684;151.102;2023-03-01T13:47:58;20.80;99.90
39453;DHT22;25154;-33.684;151.102;2023-03-01T13:53:05;20.80;99.90
39453;DHT22;25154;-33.684;151.102;2023-03-01T13:58:25;20.60;99.90
39453;DHT22;25154;-33.684;151.102;2023-03-01T14:03:29;20.70;99.90
39453;DHT22;25154;-33.684;151.102;2023-03-01T14:08:35;20.70;99.90
39453;DHT22;25154;-33.684;151.102;2023-03-01T14:14:03;22.00;99.90
39453;DHT22;25154;-33.684;151.102;2023-03-01T14:19:27;20.80;99.90
39453;DHT22;25154;-33.684;151.102;2023-03-01T14:24:31;20.80;99.90
39453;DHT22;25154;-33.684;151.102;2023-03-01T14:29:39;20.80;99.90
39453;DHT22;25154;-33.684;151.102;2023-03-01T14:34:47;20.70;99.90
39453;DHT22;25154;-33.684;151.102;2023-03-01T14:39:50;20.60;99.90
39453;DHT22;25154;-33.684;151.102;2023-03-01T14:44:55;20.50;99.90
39453;DHT22;25154;-33.684;151.102;2023-03-01T14:50:13;20.40;99.90
39453;DHT22;25154;-33.684;151.102;2023-03-01T14:55:35;20.40;99.90
39453;DHT22;25154;-33.684;151.102;2023-03-01T15:00:43;20.30;99.90
39453;DHT22;25154;-33.684;151.102;2023-03-01T15:05:49;20.20;99.90
39453;DHT22;25154;-33.684;151.102;2023-03-01T15:26:37;19.60;99.90
39453;DHT22;25154;-33.684;151.102;2023-03-01T15:31:41;19.50;99.90
39453;DHT22;25154;-33.684;151.102;2023-03-01T15:36:47;19.40;99.90
39453;DHT22;25154;-33.684;151.102;2023-03-01T15:41:51;19.40;99.90
39453;DHT22;25154;-33.684;151.102;2023-03-01T15:46:54;19.40;99.90
39453;DHT22;25154;-33.684;151.102;2023-03-01T15:52:00;19.20;99.90
39453;DHT22;25154;-33.684;151.102;2023-03-01T15:57:03;19.30;99.90
39453;DHT22;25154;-33.684;151.102;2023-03-01T16:02:10;19.30;99.90
39453;DHT22;25154;-33.684;151.102;2023-03-01T16:07:14;19.30;99.90
39453;DHT22;25154;-33.684;151.102;2023-03-01T16:12:17;19.30;99.90
39453;DHT22;25154;-33.684;151.102;2023-03-01T16:17:22;19.20;99.90
39453;DHT22;25154;-33.684;151.102;2023-03-01T16:22:25;19.00;99.90
39453;DHT22;25154;-33.684;151.102;2023-03-01T16:27:29;18.80;99.90
39453;DHT22;25154;-33.684;151.102;2023-03-01T16:32:31;18.70;99.90
39453;DHT22;25154;-33.684;151.102;2023-03-01T16:37:34;18.70;99.90
39453;DHT22;25154;-33.684;151.102;2023-03-01T16:42:38;18.60;99.90
39453;DHT22;25154;-33.684;151.102;2023-03-01T16:47:40;18.60;99.90
39453;DHT22;25154;-33.684;151.102;2023-03-01T16:52:43;18.50;99.90
39453;DHT22;25154;-33.684;151.102;2023-03-01T16:57:46;18.40;99.90
39453;DHT22;25154;-33.684;151.102;2023-03-01T17:02:49;18.40;99.90
39453;DHT22;25154;-33.684;151.102;2023-03-01T17:07:53;18.40;99.90
39453;DHT22;25154;-33.684;151.102;2023-03-01T17:13:03;18.20;99.90
39453;DHT22;25154;-33.684;151.102;2023-03-01T17:18:07;18.20;99.90
39453;DHT22;25154;-33.684;151.102;2023-03-01T17:23:10;18.20;99.90
39453;DHT22;25154;-33.684;151.102;2023-03-01T17:28:14;18.10;99.90
39453;DHT22;25154;-33.684;151.102;2023-03-01T17:33:18;18.00;99.90
39453;DHT22;25154;-33.684;151.102;2023-03-01T17:38:21;17.90;99.90
39453;DHT22;25154;-33.684;151.102;2023-03-01T17:43:23;17.90;99.90
39453;DHT22;25154;-33.684;151.102;2023-03-01T17:48:26;17.90;99.90
39453;DHT22;25154;-33.684;151.102;2023-03-01T17:53:29;17.80;99.90
39453;DHT22;25154;-33.684;151.102;2023-03-01T17:58:32;17.80;99.90
39453;DHT22;25154;-33.684;151.102;2023-03-01T18:03:35;17.60;99.90
39453;DHT22;25154;-33.684;151.102;2023-03-01T18:08:38;17.50;99.90
39453;DHT22;25154;-33.684;151.102;2023-03-01T18:13:41;17.60;99.90
39453;DHT22;25154;-33.684;151.102;2023-03-01T18:18:44;17.60;99.90
39453;DHT22;25154;-33.684;151.102;2023-03-01T18:23:47;17.60;99.90
39453;DHT22;25154;-33.684;151.102;2023-03-01T18:28:51;17.50;99.90
39453;DHT22;25154;-33.684;151.102;2023-03-01T18:33:54;17.50;99.90
39453;DHT22;25154;-33.684;151.102;2023-03-01T18:38:57;17.50;99.90
39453;DHT22;25154;-33.684;151.102;2023-03-01T18:44:05;17.50;99.90
39453;DHT22;25154;-33.684;151.102;2023-03-01T18:49:13;17.30;99.90
39453;DHT22;25154;-33.684;151.102;2023-03-01T18:54:16;17.40;99.90
39453;DHT22;25154;-33.684;151.102;2023-03-01T18:59:20;17.40;99.90
39453;DHT22;25154;-33.684;151.102;2023-03-01T19:04:22;17.40;99.90
39453;DHT22;25154;-33.684;151.102;2023-03-01T19:09:25;17.30;99.90
39453;DHT22;25154;-33.684;151.102;2023-03-01T19:14:28;17.30;99.90
39453;DHT22;25154;-33.684;151.102;2023-03-01T19:19:31;17.20;99.90
39453;DHT22;25154;-33.684;151.102;2023-03-01T19:24:37;17.20;99.90
39453;DHT22;25154;-33.684;151.102;2023-03-01T19:29:39;17.20;99.90
39453;DHT22;25154;-33.684;151.102;2023-03-01T19:34:42;17.30;99.90
39453;DHT22;25154;-33.684;151.102;2023-03-01T19:39:45;17.30;99.90
39453;DHT22;25154;-33.684;151.102;2023-03-01T19:44:48;17.20;99.90
39453;DHT22;25154;-33.684;151.102;2023-03-01T19:49:51;17.20;99.90
39453;DHT22;25154;-33.684;151.102;2023-03-01T19:54:55;17.20;99.90
39453;DHT22;25154;-33.684;151.102;2023-03-01T19:59:58;17.20;99.90
39453;DHT22;25154;-33.684;151.102;2023-03-01T20:05:01;17.20;99.90
39453;DHT22;25154;-33.684;151.102;2023-03-01T20:10:04;17.10;99.90
39453;DHT22;25154;-33.684;151.102;2023-03-01T20:15:07;17.10;99.90
39453;DHT22;25154;-33.684;151.102;2023-03-01T20:20:10;17.20;99.90
39453;DHT22;25154;-33.684;151.102;2023-03-01T20:25:13;17.20;99.90
39453;DHT22;25154;-33.684;151.102;2023-03-01T20:30:16;17.30;99.90
39453;DHT22;25154;-33.684;151.102;2023-03-01T20:35:19;17.30;99.90
39453;DHT22;25154;-33.684;151.102;2023-03-01T20:40:22;17.40;99.90
39453;DHT22;25154;-33.684;151.102;2023-03-01T20:45:28;17.40;99.90
39453;DHT22;25154;-33.684;151.102;2023-03-01T20:50:31;17.60;99.90
39453;DHT22;25154;-33.684;151.102;2023-03-01T20:55:34;17.70;99.90
39453;DHT22;25154;-33.684;151.102;2023-03-01T21:00:37;18.00;99.90
39453;DHT22;25154;-33.684;151.102;2023-03-01T21:05:40;18.20;99.90
39453;DHT22;25154;-33.684;151.102;2023-03-01T21:10:42;18.30;99.90
39453;DHT22;25154;-33.684;151.102;2023-03-01T21:16:02;18.40;99.90
39453;DHT22;25154;-33.684;151.102;2023-03-01T21:21:08;18.40;99.90
39453;DHT22;25154;-33.684;151.102;2023-03-01T21:26:25;18.40;99.90
39453;DHT22;25154;-33.684;151.102;2023-03-01T21:31:30;16.30;99.90
39453;DHT22;25154;-33.684;151.102;2023-03-01T21:36:35;18.50;99.90
39453;DHT22;25154;-33.684;151.102;2023-03-01T21:41:38;18.70;99.90
39453;DHT22;25154;-33.684;151.102;2023-03-01T21:46:41;19.00;99.90
39453;DHT22;25154;-33.684;151.102;2023-03-01T21:51:43;19.30;99.90
39453;DHT22;25154;-33.684;151.102;2023-03-01T21:56:47;19.50;99.90
39453;DHT22;25154;-33.684;151.102;2023-03-01T22:01:51;19.50;99.90
39453;DHT22;25154;-33.684;151.102;2023-03-01T22:06:53;19.60;99.90
39453;DHT22;25154;-33.684;151.102;2023-03-01T22:11:57;19.70;99.90
39453;DHT22;25154;-33.684;151.102;2023-03-01T22:17:02;19.80;99.90
39453;DHT22;25154;-33.684;151.102;2023-03-01T22:22:06;19.80;99.90
39453;DHT22;25154;-33.684;151.102;2023-03-01T22:27:09;20.10;99.90
39453;DHT22;25154;-33.684;151.102;2023-03-01T22:32:15;20.50;99.90
39453;DHT22;25154;-33.684;151.102;2023-03-01T22:37:18;20.70;99.90
39453;DHT22;25154;-33.684;151.102;2023-03-01T22:42:20;20.90;99.90
39453;DHT22;25154;-33.684;151.102;2023-03-01T22:47:23;21.00;99.90
39453;DHT22;25154;-33.684;151.102;2023-03-01T22:52:26;21.10;99.90
39453;DHT22;25154;-33.684;151.102;2023-03-01T22:57:29;21.30;99.90
39453;DHT22;25154;-33.684;151.102;2023-03-01T23:02:32;21.30;99.90
39453;DHT22;25154;-33.684;151.102;2023-03-01T23:07:36;21.40;99.90
39453;DHT22;25154;-33.684;151.102;2023-03-01T23:12:39;21.60;99.90
39453;DHT22;25154;-33.684;151.102;2023-03-01T23:17:41;21.70;99.90
39453;DHT22;25154;-33.684;151.102;2023-03-01T23:22:44;21.90;99.90
39453;DHT22;25154;-33.684;151.102;2023-03-01T23:27:47;22.10;99.90
39453;DHT22;25154;-33.684;151.102;2023-03-01T23:32:50;22.50;99.90
39453;DHT22;25154;-33.684;151.102;2023-03-01T23:37:54;22.90;99.90
39453;DHT22;25154;-33.684;151.102;2023-03-01T23:43:02;23.10;99.90
39453;DHT22;25154;-33.684;151.102;2023-03-01T23:48:10;23.20;99.90
39453;DHT22;25154;-33.684;151.102;2023-03-01T23:53:16;23.60;99.90
39453;DHT22;25154;-33.684;151.102;2023-03-01T23:58:19;24.40;99.90
